Time;durP1;ratioP1;P1;durP2;ratioP2;P2;SDS_P1;SDS_P2;PMS_P1;PMS_P2;Temp;Humidity;BMP_temperature;BMP_pressure;BME280_temperature;BME280_humidity;BME280_pressure;Samples;Min_cycle;Max_cycle;Signal;HPM_P1;HPM_P2
2023/12/07 04:58:55;;;;;;;;;;;;;;;;;;5444360;23;20017;-70
2023/12/07 05:01:22;;;;;;;;;;;;;;;;;;4995648;28;20306;-72
2023/12/07 05:03:49;;;;;;;;;;;;;;;;;;4995860;28;19930;-72
2023/12/07 05:06:16;;;;;;;;;;;;;;;;;;4995542;28;20375;-71
2023/12/07 05:08:43;;;;;;;;;;;;;;;;;;4995624;28;19941;-72
2023/12/07 05:11:10;;;;;;;;;;;;;;;;;;4995633;28;20370;-72
2023/12/07 05:13:37;;;;;;;;;;;;;;;;;;4995621;28;19933;-72
2023/12/07 05:16:04;;;;;;;;;;;;;;;;;;4995262;28;19930;-72
2023/12/07 05:18:32;;;;;;;;;;;;;;;;;;4995597;28;19971;-71
2023/12/07 05:20:59;;;;;;;;;;;;;;;;;;4996293;28;19929;-74
2023/12/07 05:23:26;;;;;;;;;;;;;;;;;;4995532;28;19929;-74
2023/12/07 05:25:54;;;;;;;;;;;;;;;;;;4995396;28;19934;-74
2023/12/07 05:28:21;;;;;;;;;;;;;;;;;;4995531;28;19968;-73
2023/12/07 05:30:48;;;;;;;;;;;;;;;;;;4994765;28;20410;-73
2023/12/07 05:33:14;;;;;;;;;;;;;;;;;;4995296;28;19926;-73
2023/12/07 05:35:41;;;;;;;;;;;;;;;;;;4995213;28;19926;-74
2023/12/07 05:38:08;;;;;;;;;;;;;;;;;;4994712;28;19926;-74
2023/12/07 05:40:35;;;;;;;;;;;;;;;;;;4995408;28;19926;-75
2023/12/07 05:43:03;;;;;;;;;;;;;;;;;;4995158;28;20294;-74
2023/12/07 05:45:30;;;;;;;;;;;;;;;;;;4994662;28;20318;-74
2023/12/07 05:47:57;;;;;;;;;;;;;;;;;;4995000;28;19933;-74
2023/12/07 05:50:24;;;;;;;;;;;;;;;;;;4994953;28;19925;-75
2023/12/07 05:52:51;;;;;;;;;;;;;;;;;;4995023;28;19930;-75
2023/12/07 05:55:17;;;;;;;;;;;;;;;;;;4995418;28;19933;-74
2023/12/07 05:57:44;;;;;;;;;;;;;;;;;;4994804;28;19961;-74
2023/12/07 06:00:11;;;;;;;;;;;;;;;;;;4995282;28;19926;-75
2023/12/07 06:02:38;;;;;;;;;;;;;;;;;;4994564;28;20379;-74
2023/12/07 06:05:05;;;;;;;;;;;;;;;;;;4995000;28;19933;-74
2023/12/07 06:07:32;;;;;;;;;;;;;;;;;;4994802;28;20012;-74
2023/12/07 06:09:59;;;;;;;;;;;;;;;;;;4994832;28;19925;-74
2023/12/07 06:12:26;;;;;;;;;;;;;;;;;;4995647;28;20376;-74
2023/12/07 06:14:53;;;;;;;;;;;;;;;;;;4995452;28;19926;-74
2023/12/07 06:17:20;;;;;;;;;;;;;;;;;;4994967;28;20086;-74
2023/12/07 06:19:47;;;;;;;;;;;;;;;;;;4995069;28;19926;-74
2023/12/07 11:26:39;;;;;;;;;;;;;;;;;;4998602;28;19990;-74
2023/12/07 11:29:07;;;;;;;;;;;;;;;;;;4999592;28;19929;-75
2023/12/07 11:31:33;;;;;;;;;;;;;;;;;;4999956;28;19977;-75
2023/12/07 11:34:00;;;;;;;;;;;;;;;;;;4998493;28;19926;-74
2023/12/07 11:36:27;;;;;;;;;;;;;;;;;;4998789;28;19932;-75
2023/12/07 11:38:54;;;;;;;;;;;;;;;;;;4999844;28;19926;-75
2023/12/07 11:41:21;;;;;;;;;;;;;;;;;;4999398;28;19926;-74
2023/12/07 11:43:49;;;;;;;;;;;;;;;;;;4999912;28;19933;-74
2023/12/07 11:46:16;;;;;;;;;;;;;;;;;;4999651;28;19981;-74
2023/12/07 11:51:12;;;;;;;;;;;;;;;;;;5015193;28;19933;-71
2023/12/07 11:53:38;;;;;;;;;;;;;;;;;;5018400;28;19925;-70
2023/12/07 11:56:05;;;;;;;;;;;;;;;;;;5018095;28;20453;-70
2023/12/07 11:58:33;;;;;;;;;;;;;;;;;;5017683;28;19925;-70
2023/12/07 12:01:00;;;;;;;;;;;;;;;;;;5017682;28;19973;-70
2023/12/07 12:03:27;;;;;;;;;;;;;;;;;;5017747;28;19948;-71
2023/12/07 12:05:54;;;;;;;;;;;;;;;;;;5017287;28;19926;-72
2023/12/07 12:08:22;;;;;;;;;;;;;;;;;;5017408;28;19933;-70
2023/12/07 12:10:50;;;;;;;;;;;;;;;;;;5017852;28;19960;-70
2023/12/07 12:13:17;;;;;;;;;;;;;;;;;;5017426;28;19977;-71
2023/12/07 12:15:44;;;;;;;;;;;;;;;;;;5016966;28;19925;-70
2023/12/07 12:18:13;;;;;;;;;;;;;;;;;;5017493;28;19932;-70
2023/12/07 12:20:40;;;;;;;;;;;;;;;;;;5017393;28;19926;-70
2023/12/07 12:23:08;;;;;;;;;;;;;;;;;;5016580;28;19979;-69
2023/12/07 12:25:36;;;;;;;;;;;;;;;;;;5016853;28;19933;-71
2023/12/07 12:28:03;;;;;;;;;;;;;;;;;;5016114;28;19936;-71
2023/12/07 12:30:29;;;;;;;;;;;;;;;;;;5015859;28;19925;-71
2023/12/07 12:32:57;;;;;;;;;;;;;;;;;;5016308;28;19929;-71
2023/12/07 12:35:24;;;;;;;;;;;;;;;;;;5017451;28;19925;-72
2023/12/07 12:37:51;;;;;;;;;;;;;;;;;;5016066;28;19932;-72
2023/12/07 12:40:19;;;;;;;;;;;;;;;;;;5014741;28;20383;-73
2023/12/07 12:42:46;;;;;;;;;;;;;;;;;;5016003;28;19932;-73
2023/12/07 12:45:12;;;;;;;;;;;;;;;;;;5016019;28;19929;-73
2023/12/07 12:47:40;;;;;;;;;;;;;;;;;;5015970;28;19925;-73
2023/12/07 12:50:06;;;;;;;;;;;;;;;;;;5015444;28;20391;-73
2023/12/07 12:52:33;;;;;;;;;;;;;;;;;;5015925;28;19926;-73
2023/12/07 12:55:01;;;;;;;;;;;;;;;;;;5015508;28;19926;-73
2023/12/07 12:57:28;;;;;;;;;;;;;;;;;;5015760;28;20382;-73
2023/12/07 12:59:54;;;;;;;;;;;;;;;;;;5017044;28;19933;-72
2023/12/07 13:02:21;;;;;;;;;;;;;;;;;;5018213;28;19925;-73
2023/12/07 13:04:48;;;;;;;;;;;;;;;;;;5016598;28;19933;-73
2023/12/07 13:07:21;;;;;;;;;;;;;;;;;;5015368;28;20421;-73
2023/12/07 13:09:48;;;;;;;;;;;;;;;;;;5016689;28;19926;-70
2023/12/07 13:12:16;;;;;;;;;;;;;;;;;;5016176;28;19925;-70
2023/12/07 13:14:43;;;;;;;;;;;;;;;;;;5016151;28;19926;-69
2023/12/07 13:17:10;;;;;;;;;;;;;;;;;;5015840;28;19979;-69
2023/12/07 13:19:37;;;;;;;;;;;;;;;;;;5016025;28;19929;-69
2023/12/07 13:22:04;;;;;;;;;;;;;;;;;;5015990;28;19926;-69
2023/12/07 13:24:31;;;;;;;;;;;;;;;;;;5016301;28;20032;-69
2023/12/07 13:27:00;;;;;;;;;;;;;;;;;;5016022;28;20395;-69
2023/12/07 13:29:27;;;;;;;;;;;;;;;;;;5016132;28;19935;-70
2023/12/07 13:31:54;;;;;;;;;;;;;;;;;;5015878;28;19996;-70
2023/12/07 13:34:22;;;;;;;;;;;;;;;;;;5015828;28;19930;-69
2023/12/07 13:36:50;;;;;;;;;;;;;;;;;;5015886;28;20263;-70
2023/12/07 13:39:20;;;;;;;;;;;;;;;;;;5015884;28;20355;-70
2023/12/07 13:41:49;;;;;;;;;;;;;;;;;;5015670;28;19983;-70
2023/12/07 13:44:17;;;;;;;;;;;;;;;;;;5015451;28;20374;-70
2023/12/07 13:46:44;;;;;;;;;;;;;;;;;;5015855;28;19972;-70
2023/12/07 13:49:11;;;;;;;;;;;;;;;;;;5015606;28;19948;-70
2023/12/07 13:51:38;;;;;;;;;;;;;;;;;;5015736;28;19926;-70
2023/12/07 13:54:07;;;;;;;;;;;;;;;;;;5015572;28;19925;-69
2023/12/07 13:56:34;;;;;;;;;;;;;;;;;;5015762;28;19925;-70
2023/12/07 13:59:02;;;;;;;;;;;;;;;;;;5016502;28;19925;-70
2023/12/07 14:01:31;;;;;;;;;;;;;;;;;;5015128;28;19926;-70
2023/12/07 14:03:58;;;;;;;;;;;;;;;;;;5014454;28;19932;-70
2023/12/07 14:06:25;;;;;;;;;;;;;;;;;;5014335;28;20390;-70
2023/12/07 14:08:52;;;;;;;;;;;;;;;;;;5014943;28;19925;-70
2023/12/07 14:11:19;;;;;;;;;;;;;;;;;;5015634;28;19933;-69
2023/12/07 14:13:48;;;;;;;;;;;;;;;;;;5015197;28;19932;-70
2023/12/07 14:16:15;;;;;;;;;;;;;;;;;;5015346;28;20271;-70
2023/12/07 14:18:42;;;;;;;;;;;;;;;;;;5014409;28;19925;-70
2023/12/07 14:21:09;;;;;;;;;;;;;;;;;;5015233;28;19926;-71
2023/12/07 14:23:37;;;;;;;;;;;;;;;;;;5014374;28;19926;-70
2023/12/07 14:26:04;;;;;;;;;;;;;;;;;;5014305;28;19925;-70
2023/12/07 14:28:33;;;;;;;;;;;;;;;;;;5014130;28;20397;-70
2023/12/07 14:31:00;;;;;;;;;;;;;;;;;;5014169;28;19925;-70
2023/12/07 14:33:27;;;;;;;;;;;;;;;;;;5014258;28;19976;-70
2023/12/07 14:35:54;;;;;;;;;;;;;;;;;;5014304;28;19925;-70
2023/12/07 14:38:21;;;;;;;;;;;;;;;;;;5014177;28;19932;-70
2023/12/07 14:40:48;;;;;;;;;;;;;;;;;;5014042;28;19949;-70
2023/12/07 14:43:15;;;;;;;;;;;;;;;;;;5014104;28;19932;-70
2023/12/07 14:45:43;;;;;;;;;;;;;;;;;;5013697;28;20276;-70
2023/12/07 14:48:10;;;;;;;;;;;;;;;;;;5013551;28;20302;-70
2023/12/07 14:50:37;;;;;;;;;;;;;;;;;;5013333;28;19935;-70
2023/12/07 14:53:04;;;;;;;;;;;;;;;;;;5014009;28;19929;-70
2023/12/07 14:55:31;;;;;;;;;;;;;;;;;;5013948;28;19925;-70
2023/12/07 14:57:58;;;;;;;;;;;;;;;;;;5014148;28;19925;-70
2023/12/07 15:00:25;;;;;;;;;;;;;;;;;;5013378;28;19925;-70
2023/12/07 15:02:53;;;;;;;;;;;;;;;;;;5014171;28;19925;-71
2023/12/07 15:05:20;;;;;;;;;;;;;;;;;;5018041;28;19976;-72
2023/12/07 15:07:47;;;;;;;;;;;;;;;;;;5017991;28;20293;-69
2023/12/07 15:10:14;;;;;;;;;;;;;;;;;;5017482;28;20414;-71
2023/12/07 15:12:41;;;;;;;;;;;;;;;;;;5017739;28;19925;-71
2023/12/07 15:15:09;;;;;;;;;;;;;;;;;;5017670;28;19951;-71
2023/12/07 15:17:36;;;;;;;;;;;;;;;;;;5018082;28;19925;-71
2023/12/07 15:20:04;;;;;;;;;;;;;;;;;;5017769;28;19933;-71
2023/12/07 15:22:30;;;;;;;;;;;;;;;;;;5018502;28;19926;-71
2023/12/07 15:24:58;;;;;;;;;;;;;;;;;;5019621;28;20004;-71
2023/12/07 15:27:25;;;;;;;;;;;;;;;;;;5018703;28;20333;-70
2023/12/07 15:29:52;;;;;;;;;;;;;;;;;;5018023;28;20410;-70
2023/12/07 15:32:19;;;;;;;;;;;;;;;;;;5017691;28;19933;-70
2023/12/07 15:34:46;;;;;;;;;;;;;;;;;;5017384;28;19925;-71
2023/12/07 15:37:13;;;;;;;;;;;;;;;;;;5017261;28;19925;-71
2023/12/07 15:39:40;;;;;;;;;;;;;;;;;;5017063;28;19926;-70
2023/12/07 15:42:07;;;;;;;;;;;;;;;;;;5017237;28;20021;-71
2023/12/07 15:44:34;;;;;;;;;;;;;;;;;;5017204;28;19926;-71
2023/12/07 15:47:00;;;;;;;;;;;;;;;;;;5016776;28;20413;-70
2023/12/07 15:49:27;;;;;;;;;;;;;;;;;;5016787;28;19932;-71
2023/12/07 15:51:54;;;;;;;;;;;;;;;;;;5016747;28;19925;-71
2023/12/07 15:54:22;;;;;;;;;;;;;;;;;;5017074;28;19925;-72
2023/12/07 15:56:48;;;;;;;;;;;;;;;;;;5017117;28;19929;-72
2023/12/07 15:59:15;;;;;;;;;;;;;;;;;;5016527;28;19932;-72
2023/12/07 16:01:42;;;;;;;;;;;;;;;;;;5016968;28;19933;-72
2023/12/07 16:04:09;;;;;;;;;;;;;;;;;;5016743;28;19948;-72
2023/12/07 16:06:36;;;;;;;;;;;;;;;;;;5018198;28;19925;-70
2023/12/07 16:09:03;;;;;;;;;;;;;;;;;;5016679;28;20418;-71
2023/12/07 16:11:30;;;;;;;;;;;;;;;;;;5016534;28;19925;-71
2023/12/07 16:13:57;;;;;;;;;;;;;;;;;;5016194;28;19933;-71
2023/12/07 16:16:24;;;;;;;;;;;;;;;;;;5016523;28;19933;-71
2023/12/07 16:18:50;;;;;;;;;;;;;;;;;;5015973;28;19932;-71
2023/12/07 16:21:20;;;;;;;;;;;;;;;;;;5016402;28;19925;-70
2023/12/07 16:23:47;;;;;;;;;;;;;;;;;;5016011;28;20401;-70
2023/12/07 16:26:14;;;;;;;;;;;;;;;;;;5016225;28;19925;-69
2023/12/07 16:28:41;;;;;;;;;;;;;;;;;;5016112;28;19958;-70
2023/12/07 16:31:08;;;;;;;;;;;;;;;;;;5016172;28;19932;-70
2023/12/07 16:33:35;;;;;;;;;;;;;;;;;;5015816;28;20405;-70
2023/12/07 16:36:02;;;;;;;;;;;;;;;;;;5016060;28;19926;-70
2023/12/07 16:38:29;;;;;;;;;;;;;;;;;;5015892;28;19984;-71
2023/12/07 16:40:56;;;;;;;;;;;;;;;;;;5015656;28;20406;-70
2023/12/07 16:43:23;;;;;;;;;;;;;;;;;;5015973;28;19933;-71
2023/12/07 16:45:50;;;;;;;;;;;;;;;;;;5015701;28;20406;-70
2023/12/07 16:48:16;;;;;;;;;;;;;;;;;;5016136;28;19932;-70
2023/12/07 16:50:44;;;;;;;;;;;;;;;;;;5015604;28;19925;-70
2023/12/07 16:53:13;;;;;;;;;;;;;;;;;;5016064;28;19925;-70
2023/12/07 16:55:40;;;;;;;;;;;;;;;;;;5016209;28;19932;-71
2023/12/07 16:58:07;;;;;;;;;;;;;;;;;;5015644;28;20383;-70
2023/12/07 17:00:34;;;;;;;;;;;;;;;;;;5016081;28;19933;-69
2023/12/07 17:03:01;;;;;;;;;;;;;;;;;;5015638;28;19933;-69
2023/12/07 17:05:28;;;;;;;;;;;;;;;;;;5015716;28;19925;-69
2023/12/07 17:07:54;;;;;;;;;;;;;;;;;;5015547;28;20001;-69
2023/12/07 17:10:21;;;;;;;;;;;;;;;;;;5015473;28;19926;-68
2023/12/07 17:12:48;;;;;;;;;;;;;;;;;;5015479;28;20039;-68
2023/12/07 17:15:15;;;;;;;;;;;;;;;;;;5014960;28;20280;-69
2023/12/07 17:17:42;;;;;;;;;;;;;;;;;;5015357;28;19925;-69
2023/12/07 17:20:09;;;;;;;;;;;;;;;;;;5015067;28;20387;-69
2023/12/07 17:22:36;;;;;;;;;;;;;;;;;;5015379;28;19926;-69
2023/12/07 17:25:04;;;;;;;;;;;;;;;;;;5015143;28;19929;-69
2023/12/07 17:27:30;;;;;;;;;;;;;;;;;;5014496;28;19925;-69
2023/12/07 17:29:57;;;;;;;;;;;;;;;;;;5014965;28;19925;-69
2023/12/07 17:32:25;;;;;;;;;;;;;;;;;;5015138;28;20394;-69
2023/12/07 17:34:51;;;;;;;;;;;;;;;;;;5015634;28;19925;-70
2023/12/07 17:37:19;;;;;;;;;;;;;;;;;;5015734;28;19925;-71
2023/12/07 17:39:46;;;;;;;;;;;;;;;;;;5015351;28;19976;-69
2023/12/07 17:42:13;;;;;;;;;;;;;;;;;;5015054;28;20318;-70
2023/12/07 17:44:39;;;;;;;;;;;;;;;;;;5015239;28;19937;-70
2023/12/07 17:47:08;;;;;;;;;;;;;;;;;;5014207;28;22243;-69
2023/12/07 17:49:35;;;;;;;;;;;;;;;;;;5054085;23;19925;-71
2023/12/07 17:52:02;;;;;;;;;;;;;;;;;;5015711;28;20293;-71
2023/12/07 17:54:29;;;;;;;;;;;;;;;;;;5015834;28;19932;-70
2023/12/07 17:56:56;;;;;;;;;;;;;;;;;;5015721;28;19955;-71
2023/12/07 17:59:23;;;;;;;;;;;;;;;;;;5015627;28;19997;-71
2023/12/07 18:01:50;;;;;;;;;;;;;;;;;;5015704;28;19925;-71
2023/12/07 18:04:16;;;;;;;;;;;;;;;;;;5015471;28;20379;-71
2023/12/07 18:06:43;;;;;;;;;;;;;;;;;;5015513;28;19925;-73
2023/12/07 18:09:10;;;;;;;;;;;;;;;;;;5015564;28;20370;-72
2023/12/07 18:11:37;;;;;;;;;;;;;;;;;;5015625;28;19926;-73
2023/12/07 18:14:04;;;;;;;;;;;;;;;;;;5016377;28;19961;-71
2023/12/07 18:16:31;;;;;;;;;;;;;;;;;;5015693;28;20401;-71
2023/12/07 18:18:58;;;;;;;;;;;;;;;;;;5016127;28;19925;-71
2023/12/07 18:21:25;;;;;;;;;;;;;;;;;;5016164;28;19925;-71
2023/12/07 18:23:52;;;;;;;;;;;;;;;;;;5014752;28;20363;-71
2023/12/07 18:26:19;;;;;;;;;;;;;;;;;;5014602;28;19926;-71
2023/12/07 18:28:46;;;;;;;;;;;;;;;;;;5015136;28;20406;-71
2023/12/07 18:31:13;;;;;;;;;;;;;;;;;;5016001;28;19932;-71
2023/12/07 18:33:40;;;;;;;;;;;;;;;;;;5015533;28;19932;-73
2023/12/07 18:36:07;;;;;;;;;;;;;;;;;;5015884;28;19926;-71
2023/12/07 18:38:33;;;;;;;;;;;;;;;;;;5015301;28;19976;-71
2023/12/07 18:41:01;;;;;;;;;;;;;;;;;;5015754;28;19925;-71
2023/12/07 18:43:28;;;;;;;;;;;;;;;;;;5016941;28;19933;-72
2023/12/07 18:45:55;;;;;;;;;;;;;;;;;;5016392;28;19925;-71
2023/12/07 18:48:22;;;;;;;;;;;;;;;;;;5015733;28;20410;-72
2023/12/07 18:50:49;;;;;;;;;;;;;;;;;;5015904;28;19925;-72
2023/12/07 18:53:16;;;;;;;;;;;;;;;;;;5016357;28;19925;-73
2023/12/07 18:55:42;;;;;;;;;;;;;;;;;;5016463;28;19925;-72
2023/12/07 18:58:09;;;;;;;;;;;;;;;;;;5016304;28;19928;-72
2023/12/07 19:00:36;;;;;;;;;;;;;;;;;;5015011;28;19932;-72
2023/12/07 19:03:02;;;;;;;;;;;;;;;;;;5015575;28;19926;-75
2023/12/07 19:05:29;;;;;;;;;;;;;;;;;;5015098;28;20383;-72
2023/12/07 19:07:57;;;;;;;;;;;;;;;;;;5014821;28;19926;-71
2023/12/07 19:10:24;;;;;;;;;;;;;;;;;;5014795;28;19925;-70
2023/12/07 19:12:51;;;;;;;;;;;;;;;;;;5014877;28;19926;-71
2023/12/07 19:15:18;;;;;;;;;;;;;;;;;;5015042;28;19933;-71
2023/12/07 19:17:45;;;;;;;;;;;;;;;;;;5014514;28;19960;-71
2023/12/07 19:20:11;;;;;;;;;;;;;;;;;;5014581;28;20334;-72
2023/12/07 19:22:38;;;;;;;;;;;;;;;;;;5014522;28;19926;-69
2023/12/07 19:25:05;;;;;;;;;;;;;;;;;;5014622;28;20302;-70
2023/12/07 19:27:33;;;;;;;;;;;;;;;;;;5015105;28;19929;-72
2023/12/07 19:30:00;;;;;;;;;;;;;;;;;;5015372;28;19925;-72
2023/12/07 19:32:27;;;;;;;;;;;;;;;;;;5015832;28;19925;-70
2023/12/07 19:34:55;;;;;;;;;;;;;;;;;;5015719;28;19925;-70
2023/12/07 19:37:22;;;;;;;;;;;;;;;;;;5015345;28;19929;-70
2023/12/07 19:39:48;;;;;;;;;;;;;;;;;;5016396;28;19926;-70
2023/12/07 19:42:15;;;;;;;;;;;;;;;;;;5015794;28;19968;-72
2023/12/07 19:44:43;;;;;;;;;;;;;;;;;;5015736;28;19929;-70
2023/12/07 19:47:10;;;;;;;;;;;;;;;;;;5015307;28;20021;-71
2023/12/07 19:49:37;;;;;;;;;;;;;;;;;;5015784;28;19925;-71
2023/12/07 19:52:04;;;;;;;;;;;;;;;;;;5020197;28;19930;-71
2023/12/07 19:54:31;;;;;;;;;;;;;;;;;;5019341;28;20413;-69
2023/12/07 19:56:58;;;;;;;;;;;;;;;;;;5018723;28;20240;-69
2023/12/07 19:59:25;;;;;;;;;;;;;;;;;;5018589;28;19926;-69
2023/12/07 20:01:52;;;;;;;;;;;;;;;;;;5020563;28;19925;-69
2023/12/07 20:04:19;;;;;;;;;;;;;;;;;;5019608;28;19933;-68
2023/12/07 20:06:46;;;;;;;;;;;;;;;;;;5017384;28;20374;-69
2023/12/07 20:09:14;;;;;;;;;;;;;;;;;;5018030;28;19936;-72
2023/12/07 20:11:41;;;;;;;;;;;;;;;;;;5017785;28;20379;-72
2023/12/07 20:14:07;;;;;;;;;;;;;;;;;;5017964;28;19933;-72
2023/12/07 20:16:34;;;;;;;;;;;;;;;;;;5017487;28;19925;-71
2023/12/07 20:19:01;;;;;;;;;;;;;;;;;;5017754;28;19930;-71
2023/12/07 20:21:28;;;;;;;;;;;;;;;;;;5018174;28;19926;-71
2023/12/07 20:23:55;;;;;;;;;;;;;;;;;;5018536;28;19925;-71
2023/12/07 20:26:22;;;;;;;;;;;;;;;;;;5018163;28;19925;-71
2023/12/07 20:28:49;;;;;;;;;;;;;;;;;;5018124;28;19925;-71
2023/12/07 20:31:16;;;;;;;;;;;;;;;;;;5017666;28;19926;-70
2023/12/07 20:33:43;;;;;;;;;;;;;;;;;;5018309;28;19926;-70
2023/12/07 20:36:09;;;;;;;;;;;;;;;;;;5017906;28;19925;-71
2023/12/07 20:38:36;;;;;;;;;;;;;;;;;;5017639;28;19925;-73
2023/12/07 20:41:03;;;;;;;;;;;;;;;;;;5017203;28;20012;-72
2023/12/07 20:43:30;;;;;;;;;;;;;;;;;;5017463;28;19925;-70
2023/12/07 20:45:57;;;;;;;;;;;;;;;;;;5016864;28;19971;-71
2023/12/07 20:48:24;;;;;;;;;;;;;;;;;;5017994;28;19999;-70
2023/12/07 20:50:51;;;;;;;;;;;;;;;;;;5016579;28;19926;-70
2023/12/07 20:53:18;;;;;;;;;;;;;;;;;;5016460;28;19932;-71
2023/12/07 20:55:45;;;;;;;;;;;;;;;;;;5016410;28;20305;-71
2023/12/07 20:58:12;;;;;;;;;;;;;;;;;;5017971;28;19926;-71
2023/12/07 21:00:39;;;;;;;;;;;;;;;;;;5019228;28;19969;-71
2023/12/07 21:03:06;;;;;;;;;;;;;;;;;;5016717;28;19933;-71
2023/12/07 21:05:33;;;;;;;;;;;;;;;;;;5016304;28;19926;-69
2023/12/07 21:08:00;;;;;;;;;;;;;;;;;;5015926;28;19926;-70
2023/12/07 21:10:27;;;;;;;;;;;;;;;;;;5016082;28;19932;-70
2023/12/07 21:12:56;;;;;;;;;;;;;;;;;;5016050;28;19937;-71
2023/12/07 21:15:23;;;;;;;;;;;;;;;;;;5016521;28;19930;-70
2023/12/07 21:17:50;;;;;;;;;;;;;;;;;;5016451;28;19925;-70
2023/12/07 21:20:17;;;;;;;;;;;;;;;;;;5015871;28;19933;-71
2023/12/07 21:22:44;;;;;;;;;;;;;;;;;;5015678;28;19936;-70
2023/12/07 21:25:11;;;;;;;;;;;;;;;;;;5015799;28;20028;-72
2023/12/07 21:27:38;;;;;;;;;;;;;;;;;;5017359;28;19925;-70
2023/12/07 21:30:05;;;;;;;;;;;;;;;;;;5016713;28;20293;-69
2023/12/07 21:32:32;;;;;;;;;;;;;;;;;;5016879;28;19929;-70
2023/12/07 21:34:58;;;;;;;;;;;;;;;;;;5016821;28;20294;-70
2023/12/07 21:37:25;;;;;;;;;;;;;;;;;;5016385;28;19925;-70
2023/12/07 21:39:53;;;;;;;;;;;;;;;;;;5016223;28;20302;-72
2023/12/07 21:42:20;;;;;;;;;;;;;;;;;;5016651;28;19925;-72
2023/12/07 21:44:47;;;;;;;;;;;;;;;;;;5016805;28;20398;-72
2023/12/07 21:47:14;;;;;;;;;;;;;;;;;;5016031;28;19930;-72
2023/12/07 21:49:41;;;;;;;;;;;;;;;;;;5015269;28;19929;-73
2023/12/07 21:52:08;;;;;;;;;;;;;;;;;;5015345;28;20295;-73
2023/12/07 21:54:34;;;;;;;;;;;;;;;;;;5015367;28;19925;-73
2023/12/07 21:57:02;;;;;;;;;;;;;;;;;;5015165;28;20394;-73
2023/12/07 21:59:29;;;;;;;;;;;;;;;;;;5015130;28;19929;-73
2023/12/07 22:01:56;;;;;;;;;;;;;;;;;;5014821;28;19925;-73
2023/12/07 22:04:23;;;;;;;;;;;;;;;;;;5014995;28;19925;-73
2023/12/07 22:06:50;;;;;;;;;;;;;;;;;;5015037;28;19926;-73
2023/12/07 22:09:17;;;;;;;;;;;;;;;;;;5014757;28;19925;-73
2023/12/07 22:11:44;;;;;;;;;;;;;;;;;;5014967;28;19929;-73
2023/12/07 22:14:11;;;;;;;;;;;;;;;;;;5015015;28;19926;-72
2023/12/07 22:16:38;;;;;;;;;;;;;;;;;;5015326;28;19933;-72
2023/12/07 22:19:05;;;;;;;;;;;;;;;;;;5017224;28;19926;-72
2023/12/07 22:21:32;;;;;;;;;;;;;;;;;;5015361;28;19925;-73
2023/12/07 22:23:59;;;;;;;;;;;;;;;;;;5015049;28;19933;-72
2023/12/07 22:26:26;;;;;;;;;;;;;;;;;;5014719;28;20295;-72
2023/12/07 22:28:52;;;;;;;;;;;;;;;;;;5014771;28;19926;-71
